createdAt,value
2016-11-21T00:01:02.864Z,94.17
2016-11-21T00:02:17.529Z,94.08
2016-11-21T00:03:33.663Z,94.27
2016-11-21T00:04:49.725Z,93.88
2016-11-21T00:06:06.330Z,94.37
2016-11-21T00:07:21.166Z,94.27
2016-11-21T00:08:37.088Z,94.46
2016-11-21T00:09:53.485Z,94.65
2016-11-21T00:11:08.568Z,94.46
2016-11-21T00:12:24.108Z,94.46
2016-11-21T00:13:40.838Z,95.03
2016-11-21T00:14:56.280Z,94.74
2016-11-21T00:16:11.950Z,94.79
2016-11-21T00:17:27.691Z,95.17
2016-11-21T00:18:44.185Z,95.08
2016-11-21T00:20:00.583Z,95.17
2016-11-21T00:21:16.531Z,96.03
2016-11-21T00:22:32.595Z,95.84
2016-11-21T00:23:47.366Z,95.56
2016-11-21T00:25:04.485Z,95.46
2016-11-21T00:26:20.264Z,95.65
2016-11-21T00:27:35.975Z,95.84
2016-11-21T00:28:49.475Z,95.65
2016-11-21T00:30:06.185Z,95.94
2016-11-21T00:31:21.274Z,96.03
2016-11-21T00:32:36.280Z,95.94
2016-11-21T00:33:50.724Z,96.12
2016-11-21T00:35:04.713Z,95.84
2016-11-21T00:36:16.916Z,95.65
2016-11-21T00:37:32.414Z,96.03
2016-11-21T00:38:48.518Z,96.22
2016-11-21T00:40:03.426Z,95.75
2016-11-21T00:41:18.702Z,95.94
2016-11-21T00:42:34.669Z,96.08
2016-11-21T00:43:49.396Z,96.12
2016-11-21T00:45:05.429Z,96.17
2016-11-21T00:46:20.522Z,95.98
2016-11-21T00:47:37.111Z,95.89
2016-11-21T00:48:52.418Z,96.08
2016-11-21T00:50:08.713Z,95.89
2016-11-21T00:51:23.663Z,95.89
2016-11-21T00:52:39.682Z,96.27
2016-11-21T00:53:54.773Z,95.89
2016-11-21T00:55:10.862Z,95.98
2016-11-21T00:56:27.253Z,96.27
2016-11-21T00:57:43.144Z,95.79
2016-11-21T00:58:59.125Z,96.36
2016-11-21T01:00:13.944Z,96.17
2016-11-21T01:01:28.615Z,95.98
2016-11-21T01:02:45.042Z,95.79
2016-11-21T01:04:00.542Z,96.27
2016-11-21T01:05:17.313Z,96.17
2016-11-21T01:06:33.856Z,96.36
2016-11-21T01:07:46.920Z,96.55
2016-11-21T01:09:01.959Z,96.75
2016-11-21T01:10:16.927Z,96.55
2016-11-21T01:11:33.337Z,96.55
2016-11-21T01:12:49.389Z,96.55
2016-11-21T01:14:05.651Z,96.84
2016-11-21T01:15:19.940Z,96.55
2016-11-21T01:16:35.899Z,96.65
2016-11-21T01:17:52.472Z,96.36
2016-11-21T01:19:05.998Z,96.51
2016-11-21T01:20:22.334Z,96.6
2016-11-21T01:21:38.787Z,96.89
2016-11-21T01:22:54.539Z,97.03
2016-11-21T01:24:10.442Z,97.08
2016-11-21T01:25:25.674Z,96.79
2016-11-21T01:26:42.066Z,96.84
2016-11-21T01:27:56.741Z,96.89
2016-11-21T01:29:13.296Z,97.22
2016-11-21T01:30:29.749Z,97.03
2016-11-21T01:31:45.659Z,97.22
2016-11-21T01:33:02.115Z,96.84
2016-11-21T01:34:17.285Z,96.94
2016-11-21T01:35:32.918Z,96.94
2016-11-21T01:36:48.287Z,96.94
2016-11-21T01:38:03.374Z,97.22
2016-11-21T01:39:19.990Z,97.22
2016-11-21T01:40:34.854Z,97.03
2016-11-21T01:41:50.735Z,97.31
2016-11-21T01:43:06.373Z,97.13
2016-11-21T01:44:23.470Z,96.94
2016-11-21T01:45:38.167Z,96.65
2016-11-21T01:46:55.039Z,96.36
2016-11-21T01:48:11.717Z,96.84
2016-11-21T01:49:27.994Z,96.94
2016-11-21T01:50:43.112Z,96.46
2016-11-21T01:52:00.375Z,95.89
2016-11-21T01:53:16.745Z,95.98
2016-11-21T01:54:30.942Z,95.41
2016-11-21T01:55:46.649Z,95.03
2016-11-21T01:57:02.926Z,95.41
2016-11-21T01:58:18.819Z,94.46
2016-11-21T01:59:33.164Z,94.93
2016-11-21T02:00:49.577Z,94.46
2016-11-21T02:02:05.694Z,94.46
2016-11-21T02:03:21.568Z,93.98
2016-11-21T02:04:37.515Z,93.6
2016-11-21T02:05:52.671Z,93.32
2016-11-21T02:07:07.483Z,93.22
2016-11-21T02:08:24.393Z,93.32
2016-11-21T02:09:40.919Z,92.65
2016-11-21T02:10:55.595Z,91.89
2016-11-21T02:12:11.533Z,91.6
2016-11-21T02:13:27.807Z,91.46
2016-11-21T02:14:43.938Z,91.36
2016-11-21T02:16:00.238Z,90.98
2016-11-21T02:17:13.379Z,91.46
2016-11-21T02:18:29.673Z,90.5
2016-11-21T02:19:45.994Z,89.94
2016-11-21T02:21:02.197Z,90.22
2016-11-21T02:22:17.954Z,90.03
2016-11-21T02:23:34.246Z,89.84
2016-11-21T02:24:46.762Z,89.55
2016-11-21T02:26:00.311Z,90.12
2016-11-21T02:27:16.612Z,89.36
2016-11-21T02:28:31.695Z,89.46
2016-11-21T02:29:48.060Z,89.55
2016-11-21T02:31:03.077Z,89.17
2016-11-21T02:32:18.814Z,88.7
2016-11-21T02:33:34.918Z,88.89
2016-11-21T02:34:49.710Z,88.51
2016-11-21T02:36:05.758Z,88.12
2016-11-21T02:37:22.505Z,87.93
2016-11-21T02:38:37.320Z,87.93
2016-11-21T02:39:52.125Z,88.12
2016-11-21T02:41:08.434Z,87.6
2016-11-21T02:42:23.523Z,87.88
2016-11-21T02:43:38.444Z,87.27
2016-11-21T02:44:52.711Z,86.83
2016-11-21T02:46:07.157Z,87.12
2016-11-21T02:47:22.701Z,86.83
2016-11-21T02:48:39.177Z,86.36
2016-11-21T02:49:55.770Z,86.07
2016-11-21T02:51:08.730Z,86.36
2016-11-21T02:52:23.565Z,86.07
2016-11-21T02:53:37.203Z,85.31
2016-11-21T02:54:53.079Z,85.41
2016-11-21T02:56:08.581Z,85.69
2016-11-21T02:57:25.028Z,85.31
2016-11-21T02:58:42.068Z,85.78
2016-11-21T02:59:56.825Z,85.78
2016-11-21T03:01:12.730Z,85.41
2016-11-21T03:02:27.851Z,84.92
2016-11-21T03:03:42.678Z,84.92
2016-11-21T03:04:58.475Z,84.55
2016-11-21T03:06:13.930Z,84.45
2016-11-21T03:07:30.387Z,83.88
2016-11-21T03:08:45.161Z,84.74
2016-11-21T03:10:01.104Z,84.36
2016-11-21T03:11:16.159Z,84.36
2016-11-21T03:12:32.288Z,84.36
2016-11-21T03:13:48.800Z,84.07
2016-11-21T03:15:04.483Z,83.88
2016-11-21T03:16:20.557Z,83.4
2016-11-21T03:17:34.873Z,83.78
2016-11-21T03:18:48.042Z,83.5
2016-11-21T03:20:04.546Z,83.78
2016-11-21T03:21:19.665Z,82.92
2016-11-21T03:22:33.607Z,83.21
2016-11-21T03:23:48.595Z,82.54
2016-11-21T03:25:01.396Z,82.54
2016-11-21T03:26:16.481Z,82.92
2016-11-21T03:27:31.381Z,81.78
2016-11-21T03:28:47.830Z,81.88
2016-11-21T03:30:01.031Z,81.4
2016-11-21T03:31:16.158Z,81.97
2016-11-21T03:32:31.217Z,81.49
2016-11-21T03:33:45.969Z,81.21
2016-11-21T03:35:02.003Z,81.12
2016-11-21T03:36:15.202Z,80.68
2016-11-21T03:37:30.021Z,80.87
2016-11-21T03:38:46.712Z,80.68
2016-11-21T03:40:02.581Z,80.11
2016-11-21T03:41:19.299Z,80.11
2016-11-21T03:42:32.839Z,80.3
2016-11-21T03:43:49.797Z,80.39
2016-11-21T03:45:04.518Z,79.72
2016-11-21T03:46:20.666Z,79.72
2016-11-21T03:47:37.039Z,79.44
2016-11-21T03:48:53.773Z,79.53
2016-11-21T03:50:07.790Z,79.25
2016-11-21T03:51:23.283Z,79.25
2016-11-21T03:52:37.766Z,78.58
2016-11-21T03:53:54.709Z,78.58
2016-11-21T03:55:10.056Z,78.49
2016-11-21T03:56:26.117Z,78.96
2016-11-21T03:57:39.476Z,78.39
2016-11-21T03:58:55.603Z,78.3
2016-11-21T04:00:11.662Z,78.49
2016-11-21T04:01:28.575Z,78.67
2016-11-21T04:02:45.489Z,78.39
2016-11-21T04:03:58.462Z,78.3
2016-11-21T04:05:14.792Z,78.43
2016-11-21T04:06:31.492Z,78.39
2016-11-21T04:07:47.629Z,78.3
2016-11-21T04:09:04.087Z,77.76
2016-11-21T04:10:20.139Z,78.14
2016-11-21T04:11:35.920Z,78.01
2016-11-21T04:12:52.364Z,78.3
2016-11-21T04:14:07.074Z,77.57
2016-11-21T04:15:23.165Z,78.14
2016-11-21T04:16:39.210Z,77.38
2016-11-21T04:17:54.280Z,76.9
2016-11-21T04:19:07.930Z,76.9
2016-11-21T04:20:24.644Z,76.42
2016-11-21T04:21:41.473Z,76.62
2016-11-21T04:22:56.966Z,76.71
2016-11-21T04:24:12.851Z,76.14
2016-11-21T04:25:29.302Z,75.76
2016-11-21T04:26:44.363Z,75.76
2016-11-21T04:27:56.038Z,76.42
2016-11-21T04:29:09.804Z,75.95
2016-11-21T04:30:24.146Z,75.66
2016-11-21T04:31:37.275Z,76.23
2016-11-21T04:32:52.233Z,76.23
2016-11-21T04:34:06.772Z,76.04
2016-11-21T04:35:21.640Z,76.23
2016-11-21T04:36:38.077Z,76.14
2016-11-21T04:37:54.773Z,75.95
2016-11-21T04:39:10.406Z,76.04
2016-11-21T04:40:27.019Z,75.76
2016-11-21T04:41:42.210Z,75.57
2016-11-21T04:42:56.629Z,75.57
2016-11-21T04:44:11.383Z,75.51
2016-11-21T04:45:24.709Z,75.51
2016-11-21T04:46:39.385Z,75.51
2016-11-21T04:47:55.021Z,75.32
2016-11-21T04:49:10.751Z,75.03
2016-11-21T04:50:26.917Z,75.42
2016-11-21T04:51:42.831Z,75.22
2016-11-21T04:52:59.246Z,75.32
2016-11-21T04:54:15.291Z,74.9
2016-11-21T04:55:32.378Z,75.03
2016-11-21T04:56:47.040Z,74.55
2016-11-21T04:58:01.414Z,74.37
2016-11-21T04:59:16.323Z,74.27
2016-11-21T05:00:32.330Z,74.46
2016-11-21T05:01:48.311Z,74.55
2016-11-21T05:03:04.350Z,74.27
2016-11-21T05:04:21.103Z,74.27
2016-11-21T05:05:37.010Z,73.98
2016-11-21T05:06:51.847Z,73.69
2016-11-21T05:08:07.635Z,73.88
2016-11-21T05:09:22.851Z,74.17
2016-11-21T05:10:39.403Z,73.69
2016-11-21T05:11:56.422Z,73.88
2016-11-21T05:13:12.715Z,73.98
2016-11-21T05:14:27.983Z,74.37
2016-11-21T05:15:44.265Z,73.79
2016-11-21T05:17:00.715Z,73.69
2016-11-21T05:18:17.242Z,73.5
2016-11-21T05:19:33.863Z,73.22
2016-11-21T05:20:50.544Z,73.41
2016-11-21T05:22:05.581Z,73.69
2016-11-21T05:23:19.374Z,73.79
2016-11-21T05:24:35.665Z,73.41
2016-11-21T05:25:52.450Z,73.69
2016-11-21T05:27:08.431Z,73.22
2016-11-21T05:28:24.977Z,73.6
2016-11-21T05:29:38.109Z,73.03
2016-11-21T05:30:52.835Z,73.69
2016-11-21T05:32:09.287Z,73.88
2016-11-21T05:33:22.484Z,73.79
2016-11-21T05:34:37.163Z,73.5
2016-11-21T05:35:52.124Z,73.56
2016-11-21T05:37:07.363Z,73.75
2016-11-21T05:38:23.144Z,74.04
2016-11-21T05:39:40.236Z,74.37
2016-11-21T05:40:53.834Z,74.52
2016-11-21T05:42:10.117Z,74.42
2016-11-21T05:43:24.609Z,74.23
2016-11-21T05:44:39.863Z,74.42
2016-11-21T05:45:53.116Z,74.52
2016-11-21T05:47:09.473Z,74.42
2016-11-21T05:48:24.523Z,74.23
2016-11-21T05:49:40.797Z,75.09
2016-11-21T05:50:55.521Z,74.71
2016-11-21T05:52:10.357Z,74.99
2016-11-21T05:53:26.396Z,75.28
2016-11-21T05:54:41.868Z,75.37
2016-11-21T05:55:57.004Z,75.09
2016-11-21T05:57:11.261Z,74.8
2016-11-21T05:58:27.410Z,74.52
2016-11-21T05:59:41.931Z,74.8
2016-11-21T06:00:58.488Z,74.61
2016-11-21T06:02:13.001Z,74.23
2016-11-21T06:03:30.025Z,73.85
2016-11-21T06:04:45.504Z,73.66
2016-11-21T06:05:59.301Z,73.6
2016-11-21T06:07:15.192Z,73.94
2016-11-21T06:08:28.410Z,73.41
2016-11-21T06:09:43.025Z,73.47
2016-11-21T06:10:58.552Z,73.69
2016-11-21T06:12:15.069Z,73.88
2016-11-21T06:13:29.762Z,73.6
2016-11-21T06:14:44.848Z,73.69
2016-11-21T06:15:58.336Z,73.6
2016-11-21T06:17:13.015Z,73.12
2016-11-21T06:18:29.574Z,73.12
2016-11-21T06:19:44.421Z,73.88
2016-11-21T06:21:00.759Z,73.88
2016-11-21T06:22:16.036Z,73.88
2016-11-21T06:23:31.428Z,73.12
2016-11-21T06:24:45.800Z,72.74
2016-11-21T06:26:02.136Z,72.93
2016-11-21T06:27:17.006Z,73.03
2016-11-21T06:28:31.834Z,72.93
2016-11-21T06:29:48.696Z,73.41
2016-11-21T06:31:03.283Z,73.32
2016-11-21T06:32:19.416Z,73.03
2016-11-21T06:33:36.119Z,73.12
2016-11-21T06:34:50.393Z,72.93
2016-11-21T06:36:06.671Z,73.6
2016-11-21T06:37:21.286Z,74.08
2016-11-21T06:38:37.621Z,74.37
2016-11-21T06:39:52.106Z,74.84
2016-11-21T06:41:07.578Z,75.42
2016-11-21T06:42:22.907Z,75.22
2016-11-21T06:43:39.096Z,75.32
2016-11-21T06:44:55.406Z,76.18
2016-11-21T06:46:11.884Z,76.37
2016-11-21T06:47:28.226Z,76.18
2016-11-21T06:48:43.986Z,76.08
2016-11-21T06:49:58.828Z,76.33
2016-11-21T06:51:13.839Z,76.27
2016-11-21T06:52:30.704Z,76.52
2016-11-21T06:53:47.385Z,76.52
2016-11-21T06:55:01.721Z,76.27
2016-11-21T06:56:18.239Z,76.27
2016-11-21T06:57:34.750Z,76.27
2016-11-21T06:58:50.393Z,76.33
2016-11-21T07:00:06.209Z,75.95
2016-11-21T07:01:19.631Z,75.89
2016-11-21T07:02:34.462Z,76.18
2016-11-21T07:03:51.298Z,76.37
2016-11-21T07:05:07.998Z,75.89
2016-11-21T07:06:24.479Z,75.7
2016-11-21T07:07:39.145Z,75.98
2016-11-21T07:08:53.784Z,75.79
2016-11-21T07:10:08.611Z,75.79
2016-11-21T07:11:21.661Z,75.79
2016-11-21T07:12:37.307Z,75.98
2016-11-21T07:13:53.724Z,75.7
2016-11-21T07:15:06.734Z,75.98
2016-11-21T07:16:20.007Z,75.89
2016-11-21T07:17:36.287Z,75.98
2016-11-21T07:18:52.567Z,75.6
2016-11-21T07:20:09.184Z,75.89
2016-11-21T07:21:22.219Z,75.79
2016-11-21T07:22:38.294Z,75.7
2016-11-21T07:23:54.900Z,75.98
2016-11-21T07:25:09.587Z,76.46
2016-11-21T07:26:23.897Z,77.13
2016-11-21T07:27:40.346Z,77.03
2016-11-21T07:28:56.565Z,76.94
2016-11-21T07:30:11.541Z,77.03
2016-11-21T07:31:25.781Z,77.7
2016-11-21T07:32:39.472Z,77.7
2016-11-21T07:33:53.056Z,77.51
2016-11-21T07:35:09.059Z,77.51
2016-11-21T07:36:24.347Z,77.23
2016-11-21T07:37:40.670Z,77.51
2016-11-21T07:38:57.785Z,78.37
2016-11-21T07:40:11.244Z,77.99
2016-11-21T07:41:26.265Z,77.89
2016-11-21T07:42:42.600Z,78.56
2016-11-21T07:43:56.113Z,77.8
2016-11-21T07:45:11.617Z,78.37
2016-11-21T07:46:28.148Z,78.18
2016-11-21T07:47:43.324Z,78.37
2016-11-21T07:48:58.744Z,77.89
2016-11-21T07:50:13.178Z,77.89
2016-11-21T07:51:29.536Z,77.99
2016-11-21T07:52:46.116Z,77.89
2016-11-21T07:54:03.046Z,78.18
2016-11-21T07:55:18.929Z,77.99
2016-11-21T07:56:35.791Z,77.51
2016-11-21T07:57:51.427Z,77.61
2016-11-21T07:59:06.556Z,77.61
2016-11-21T08:00:22.821Z,77.7
2016-11-21T08:01:37.529Z,77.23
2016-11-21T08:02:53.823Z,77.13
2016-11-21T08:04:10.355Z,77.61
2016-11-21T08:05:25.185Z,77.51
2016-11-21T08:06:41.499Z,78.09
2016-11-21T08:07:54.885Z,77.7
2016-11-21T08:09:11.953Z,77.61
2016-11-21T08:10:23.874Z,77.42
2016-11-21T08:11:40.201Z,77.32
2016-11-21T08:12:56.730Z,77.7
2016-11-21T08:14:11.785Z,77.7
2016-11-21T08:15:26.557Z,77.84
2016-11-21T08:16:42.461Z,77.51
2016-11-21T08:17:58.544Z,77.26
2016-11-21T08:19:15.267Z,77.55
2016-11-21T08:20:31.973Z,77.45
2016-11-21T08:21:47.933Z,77.17
2016-11-21T08:23:04.580Z,77.84
2016-11-21T08:24:20.301Z,77.45
2016-11-21T08:25:36.586Z,77.55
2016-11-21T08:26:50.035Z,77.65
2016-11-21T08:28:04.742Z,77.26
2016-11-21T08:29:20.017Z,78.03
2016-11-21T08:30:35.056Z,77.94
2016-11-21T08:31:50.338Z,78.22
2016-11-21T08:33:05.199Z,78.6
2016-11-21T08:34:22.529Z,78.7
2016-11-21T08:35:38.692Z,78.6
2016-11-21T08:36:55.373Z,79.36
2016-11-21T08:38:11.679Z,79.46
2016-11-21T08:39:28.134Z,79.52
2016-11-21T08:40:43.591Z,79.46
2016-11-21T08:41:58.332Z,79.71
2016-11-21T08:43:13.741Z,79.8
2016-11-21T08:44:27.944Z,79.56
2016-11-21T08:45:44.264Z,80.41
2016-11-21T08:47:00.662Z,79.99
2016-11-21T08:48:16.801Z,80.51
2016-11-21T08:49:31.276Z,80.19
2016-11-21T08:50:46.223Z,80.61
2016-11-21T08:52:02.637Z,80.95
2016-11-21T08:53:18.721Z,81.24
2016-11-21T08:54:32.335Z,81.43
2016-11-21T08:55:49.020Z,81.52
2016-11-21T08:57:04.979Z,82.09
2016-11-21T08:58:20.650Z,81.71
2016-11-21T08:59:37.587Z,82.09
2016-11-21T09:00:50.674Z,82.86
2016-11-21T09:02:07.103Z,82.86
2016-11-21T09:03:23.904Z,81.71
2016-11-21T09:04:38.881Z,82
2016-11-21T09:05:55.213Z,82.48
2016-11-21T09:07:11.776Z,82.57
2016-11-21T09:08:28.288Z,82.67
2016-11-21T09:09:44.216Z,82.19
2016-11-21T09:10:59.311Z,81.81
2016-11-21T09:12:14.330Z,82.38
2016-11-21T09:13:29.806Z,82.67
2016-11-21T09:14:45.775Z,82.57
2016-11-21T09:16:00.392Z,82.52
2016-11-21T09:17:16.271Z,82
2016-11-21T09:18:32.968Z,82.42
2016-11-21T09:19:49.901Z,82.71
2016-11-21T09:21:04.318Z,82.19
2016-11-21T09:22:20.621Z,82.9
2016-11-21T09:23:36.996Z,82.61
2016-11-21T09:24:50.537Z,83.09
2016-11-21T09:26:06.692Z,82.61
2016-11-21T09:27:21.767Z,82.9
2016-11-21T09:28:37.118Z,82.52
2016-11-21T09:29:51.159Z,82.04
2016-11-21T09:31:07.383Z,82.81
2016-11-21T09:32:20.459Z,82.61
2016-11-21T09:33:33.990Z,83.09
2016-11-21T09:34:47.467Z,82.42
2016-11-21T09:36:03.150Z,82.61
2016-11-21T09:37:18.228Z,83.28
2016-11-21T09:38:31.867Z,83.47
2016-11-21T09:39:48.976Z,83
2016-11-21T09:41:05.772Z,83.38
2016-11-21T09:42:22.274Z,82.61
2016-11-21T09:43:38.961Z,83
2016-11-21T09:44:55.413Z,82.71
2016-11-21T09:46:12.560Z,82.81
2016-11-21T09:47:27.780Z,83
2016-11-21T09:48:43.856Z,83.09
2016-11-21T09:49:58.808Z,83.38
2016-11-21T09:51:14.567Z,84.33
2016-11-21T09:52:30.906Z,83.34
2016-11-21T09:53:46.239Z,83.53
2016-11-21T09:54:59.882Z,83.53
2016-11-21T09:56:16.211Z,83.24
2016-11-21T09:57:32.253Z,83.62
2016-11-21T09:58:48.788Z,84.48
2016-11-21T10:00:02.085Z,83.72
2016-11-21T10:01:17.315Z,83.14
2016-11-21T10:02:32.318Z,83.81
2016-11-21T10:03:49.008Z,83.62
2016-11-21T10:05:03.813Z,84.39
2016-11-21T10:06:19.872Z,83.53
2016-11-21T10:07:36.592Z,83.53
2016-11-21T10:08:53.198Z,84
2016-11-21T10:10:09.508Z,83.81
2016-11-21T10:11:23.931Z,83.91
2016-11-21T10:12:40.046Z,83.53
2016-11-21T10:13:54.483Z,82.67
2016-11-21T10:15:10.822Z,83.72
2016-11-21T10:16:26.970Z,83.62
2016-11-21T10:17:42.471Z,83.91
2016-11-21T10:18:56.741Z,83.43
2016-11-21T10:20:12.460Z,83.81
2016-11-21T10:21:24.285Z,83.14
2016-11-21T10:22:38.736Z,83.24
2016-11-21T10:23:55.125Z,83.53
2016-11-21T10:25:11.876Z,83.72
2016-11-21T10:26:28.202Z,84.1
2016-11-21T10:27:43.500Z,83.72
2016-11-21T10:28:55.348Z,83.91
2016-11-21T10:30:11.236Z,84.39
2016-11-21T10:31:26.319Z,83.91
2016-11-21T10:32:39.850Z,84.58
2016-11-21T10:33:56.958Z,84.48
2016-11-21T10:35:13.682Z,84.39
2016-11-21T10:36:30.232Z,84.86
2016-11-21T10:37:46.420Z,84.96
2016-11-21T10:39:03.216Z,84.96
2016-11-21T10:40:16.701Z,84.58
2016-11-21T10:41:30.172Z,84.48
2016-11-21T10:42:45.283Z,84.58
2016-11-21T10:44:01.494Z,84.29
2016-11-21T10:45:17.766Z,84.58
2016-11-21T10:46:33.931Z,84.77
2016-11-21T10:47:49.104Z,84.48
2016-11-21T10:49:03.935Z,84.48
2016-11-21T10:50:19.974Z,85.25
2016-11-21T10:51:34.660Z,86.01
2016-11-21T10:52:51.197Z,85.63
2016-11-21T10:54:06.920Z,85.34
2016-11-21T10:55:22.267Z,85.63
2016-11-21T10:56:37.211Z,85.63
2016-11-21T10:57:51.945Z,85.91
2016-11-21T10:59:08.121Z,85.91
2016-11-21T11:00:25.214Z,85.53
2016-11-21T11:01:40.481Z,85.25
2016-11-21T11:02:54.750Z,85.82
2016-11-21T11:04:11.213Z,84.86
2016-11-21T11:05:27.348Z,85.34
2016-11-21T11:06:42.557Z,85.44
2016-11-21T11:07:58.599Z,85.72
2016-11-21T11:09:15.010Z,85.44
2016-11-21T11:10:31.326Z,84
2016-11-21T11:11:47.608Z,85.25
2016-11-21T11:13:03.821Z,84.81
2016-11-21T11:14:20.063Z,83.67
2016-11-21T11:15:35.963Z,84.52
2016-11-21T11:16:52.473Z,84.23
2016-11-21T11:18:07.461Z,84.23
2016-11-21T11:19:21.818Z,83.76
2016-11-21T11:20:36.355Z,83.57
2016-11-21T11:21:52.586Z,83.57
2016-11-21T11:23:08.749Z,84.14
2016-11-21T11:24:24.740Z,83.76
2016-11-21T11:25:39.569Z,83.86
2016-11-21T11:26:54.100Z,83.95
2016-11-21T11:28:08.493Z,83.38
2016-11-21T11:29:23.526Z,83.09
2016-11-21T11:30:37.965Z,83.09
2016-11-21T11:31:54.768Z,83.57
2016-11-21T11:33:09.109Z,82.42
2016-11-21T11:34:25.787Z,82.71
2016-11-21T11:35:42.085Z,82.71
2016-11-21T11:36:58.043Z,82.42
2016-11-21T11:38:14.913Z,82.61
2016-11-21T11:39:31.523Z,83.38
2016-11-21T11:40:46.339Z,82.52
2016-11-21T11:42:02.370Z,82.81
2016-11-21T11:43:19.419Z,82.9
2016-11-21T11:44:33.440Z,83
2016-11-21T11:45:48.437Z,83.57
2016-11-21T11:47:04.309Z,82.71
2016-11-21T11:48:19.385Z,82.04
2016-11-21T11:49:34.069Z,82.14
2016-11-21T11:50:49.409Z,82.14
2016-11-21T11:52:06.031Z,82.71
2016-11-21T11:53:20.328Z,82.14
2016-11-21T11:54:35.188Z,81.66
2016-11-21T11:55:50.680Z,81.66
2016-11-21T11:57:06.414Z,82.71
2016-11-21T11:58:21.498Z,82.9
2016-11-21T11:59:38.400Z,82.61
2016-11-21T12:00:54.613Z,81.85
2016-11-21T12:02:09.469Z,82.9
2016-11-21T12:03:26.016Z,82.71
2016-11-21T12:04:40.985Z,82.71
2016-11-21T12:05:57.710Z,82.81
2016-11-21T12:07:13.506Z,82.71
2016-11-21T12:08:28.299Z,82.61
2016-11-21T12:09:43.608Z,83
2016-11-21T12:10:58.664Z,82.42
2016-11-21T12:12:14.552Z,83.09
2016-11-21T12:13:29.799Z,82.71
2016-11-21T12:14:42.652Z,83.28
2016-11-21T12:15:58.798Z,83.28
2016-11-21T12:17:14.011Z,83.57
2016-11-21T12:18:29.741Z,83.86
2016-11-21T12:19:46.447Z,83.86
2016-11-21T12:21:01.294Z,84.05
2016-11-21T12:22:14.725Z,84.52
2016-11-21T12:23:29.340Z,84.14
2016-11-21T12:24:44.209Z,84.43
2016-11-21T12:26:00.828Z,83.95
2016-11-21T12:27:15.541Z,84.14
2016-11-21T12:28:30.422Z,83.57
2016-11-21T12:29:46.399Z,84.43
2016-11-21T12:31:02.552Z,84.43
2016-11-21T12:32:19.438Z,84.62
2016-11-21T12:33:35.246Z,84.43
2016-11-21T12:34:51.660Z,83.95
2016-11-21T12:36:06.104Z,83.18
2016-11-21T12:37:22.443Z,83.38
2016-11-21T12:38:38.746Z,83.47
2016-11-21T12:39:54.138Z,83.86
2016-11-21T12:41:10.045Z,83.28
2016-11-21T12:42:25.829Z,83.38
2016-11-21T12:43:40.316Z,83.47
2016-11-21T12:44:54.984Z,82.71
2016-11-21T12:46:10.495Z,83.09
2016-11-21T12:47:26.830Z,82.14
2016-11-21T12:48:43.299Z,81.56
2016-11-21T12:50:00.289Z,82.71
2016-11-21T12:51:16.406Z,81.76
2016-11-21T12:52:32.066Z,82.23
2016-11-21T12:53:48.446Z,82.14
2016-11-21T12:55:01.819Z,81.37
2016-11-21T12:56:15.462Z,80.9
2016-11-21T12:57:32.301Z,80.04
2016-11-21T12:58:46.435Z,80.46
2016-11-21T13:00:01.278Z,80.04
2016-11-21T13:01:17.714Z,79.98
2016-11-21T13:02:34.419Z,79.56
2016-11-21T13:03:49.370Z,79.5
2016-11-21T13:05:05.860Z,78.64
2016-11-21T13:06:20.293Z,78.74
2016-11-21T13:07:36.348Z,78.36
2016-11-21T13:08:53.331Z,77.97
2016-11-21T13:10:10.500Z,77.11
2016-11-21T13:11:25.670Z,77.11
2016-11-21T13:12:42.978Z,76.82
2016-11-21T13:13:58.208Z,75.87
2016-11-21T13:15:14.255Z,75.68
2016-11-21T13:16:29.371Z,75.59
2016-11-21T13:17:45.469Z,75.3
2016-11-21T13:19:00.904Z,75.3
2016-11-21T13:20:16.081Z,75.49
2016-11-21T13:21:29.924Z,75.59
2016-11-21T13:22:45.199Z,74.53
2016-11-21T13:23:57.598Z,74.44
2016-11-21T13:25:13.753Z,73.58
2016-11-21T13:26:30.700Z,74.24
2016-11-21T13:27:45.465Z,74.24
2016-11-21T13:29:00.996Z,73.86
2016-11-21T13:30:14.243Z,73.1
2016-11-21T13:31:30.288Z,73.19
2016-11-21T13:32:46.826Z,72.43
2016-11-21T13:34:02.092Z,72.53
2016-11-21T13:35:16.823Z,71.61
2016-11-21T13:36:33.051Z,71.7
2016-11-21T13:37:48.075Z,71.67
2016-11-21T13:39:01.399Z,70.9
2016-11-21T13:40:15.947Z,70.71
2016-11-21T13:41:30.790Z,70.36
2016-11-21T13:42:45.435Z,70.27
2016-11-21T13:44:01.971Z,70.46
2016-11-21T13:45:16.151Z,70.52
2016-11-21T13:46:29.614Z,70.56
2016-11-21T13:47:46.215Z,70.14
2016-11-21T13:49:01.703Z,70.04
2016-11-21T13:50:16.230Z,70.04
2016-11-21T13:51:32.216Z,69.37
2016-11-21T13:52:49.103Z,69.66
2016-11-21T13:54:02.744Z,69.37
2016-11-21T13:55:17.928Z,69.31
2016-11-21T13:56:33.796Z,69.89
2016-11-21T13:57:48.781Z,69.27
2016-11-21T13:59:04.138Z,69.76
2016-11-21T14:00:20.978Z,69.02
2016-11-21T14:01:37.691Z,69.6
2016-11-21T14:02:52.090Z,68.51
2016-11-21T14:04:06.948Z,68.7
2016-11-21T14:05:23.014Z,67.94
2016-11-21T14:06:36.317Z,67.75
2016-11-21T14:07:50.783Z,66.7
2016-11-21T14:09:06.542Z,67.59
2016-11-21T14:10:19.830Z,66.6
2016-11-21T14:11:34.488Z,65.97
2016-11-21T14:12:50.418Z,65.48
2016-11-21T14:14:05.649Z,65.97
2016-11-21T14:15:19.122Z,65.11
2016-11-21T14:16:36.374Z,64.25
2016-11-21T14:17:51.651Z,63.96
2016-11-21T14:19:08.581Z,65.11
2016-11-21T14:20:23.354Z,64.62
2016-11-21T14:21:39.028Z,64.25
2016-11-21T14:22:53.725Z,64.53
2016-11-21T14:24:07.221Z,65.2
2016-11-21T14:25:24.317Z,66.54
2016-11-21T14:26:39.567Z,67.88
2016-11-21T14:27:56.066Z,68.26
2016-11-21T14:29:11.279Z,70.9
2016-11-21T14:30:26.728Z,70.81
2016-11-21T14:31:41.174Z,70.29
2016-11-21T14:32:57.999Z,70.87
2016-11-21T14:34:13.120Z,70.48
2016-11-21T14:35:29.300Z,70.87
2016-11-21T14:36:45.462Z,70.77
2016-11-21T14:38:01.834Z,71.34
2016-11-21T14:39:18.328Z,71.63
2016-11-21T14:40:34.883Z,71.63
2016-11-21T14:41:51.817Z,72.39
2016-11-21T14:43:08.394Z,70.39
2016-11-21T14:44:25.205Z,70.39
2016-11-21T14:45:41.313Z,70.39
2016-11-21T14:46:56.221Z,69.53
2016-11-21T14:48:09.236Z,68.96
2016-11-21T14:49:22.688Z,68.9
2016-11-21T14:50:39.216Z,68.48
2016-11-21T14:51:56.263Z,68.57
2016-11-21T14:53:11.565Z,68.1
2016-11-21T14:54:27.557Z,67.71
2016-11-21T14:55:42.540Z,68
2016-11-21T14:56:57.453Z,66.79
2016-11-21T14:58:12.060Z,66.5
2016-11-21T14:59:28.617Z,65.17
2016-11-21T15:00:44.998Z,65.93
2016-11-21T15:01:59.698Z,65.55
2016-11-21T15:03:14.452Z,65.07
2016-11-21T15:04:30.354Z,64.98
2016-11-21T15:05:46.844Z,64.82
2016-11-21T15:07:03.633Z,64.02
2016-11-21T15:08:17.010Z,63.73
2016-11-21T15:09:31.954Z,63.48
2016-11-21T15:10:48.916Z,63.48
2016-11-21T15:12:04.690Z,62.62
2016-11-21T15:13:21.100Z,63.29
2016-11-21T15:14:36.144Z,63.39
2016-11-21T15:15:52.177Z,62.71
2016-11-21T15:17:06.212Z,62.24
2016-11-21T15:18:23.175Z,61.85
2016-11-21T15:19:36.348Z,61.85
2016-11-21T15:20:52.150Z,61.09
2016-11-21T15:22:08.293Z,60.99
2016-11-21T15:23:23.324Z,62.04
2016-11-21T15:24:39.410Z,61.38
2016-11-21T15:25:55.472Z,60.99
2016-11-21T15:27:12.055Z,61.66
2016-11-21T15:28:28.166Z,61.09
2016-11-21T15:29:44.616Z,61.66
2016-11-21T15:30:59.594Z,60.74
2016-11-21T15:32:16.256Z,60.71
2016-11-21T15:33:32.143Z,60.9
2016-11-21T15:34:47.406Z,60.64
2016-11-21T15:36:02.501Z,60.35
2016-11-21T15:37:17.586Z,60.64
2016-11-21T15:38:34.579Z,60.45
2016-11-21T15:39:51.544Z,60.8
2016-11-21T15:41:06.502Z,60.83
2016-11-21T15:42:19.973Z,60.64
2016-11-21T15:43:36.321Z,60.83
2016-11-21T15:44:51.001Z,60.45
2016-11-21T15:46:05.297Z,61.38
2016-11-21T15:47:21.957Z,61.22
2016-11-21T15:48:38.478Z,60.9
2016-11-21T15:49:54.868Z,60.64
2016-11-21T15:51:09.692Z,60.83
2016-11-21T15:52:26.155Z,60.64
2016-11-21T15:53:39.699Z,61.19
2016-11-21T15:54:55.922Z,61.19
2016-11-21T15:56:11.448Z,61.19
2016-11-21T15:57:26.337Z,60.9
2016-11-21T15:58:41.270Z,61.28
2016-11-21T15:59:57.804Z,61.28
2016-11-21T16:01:12.992Z,61.19
2016-11-21T16:02:28.942Z,61.09
2016-11-21T16:03:43.258Z,61.47
2016-11-21T16:05:00.095Z,61.76
2016-11-21T16:06:16.253Z,61.98
2016-11-21T16:07:32.883Z,61.85
2016-11-21T16:08:49.753Z,60.99
2016-11-21T16:10:04.445Z,61.57
2016-11-21T16:11:17.677Z,61.88
2016-11-21T16:12:33.975Z,62.04
2016-11-21T16:13:47.573Z,61.76
2016-11-21T16:15:03.103Z,62.04
2016-11-21T16:16:19.072Z,61.85